Stations météo

réclame
Mon MeteoGroup
Motril, Espagne (8485): Température de l'air & dewpoint: 14.08.2018 19:00:00 - 20.08.2018 19:00:00 (CEST)Motril, Espagne (8485): Vitesse du vent & gusts: 14.08.2018 19:00:00 - 20.08.2018 19:00:00 (CEST)Motril, Espagne (8485): Direction du vent: 14.08.2018 19:00:00 - 20.08.2018 19:00:00 (CEST)Motril, Espagne (8485): Quantités de précipitations: 14.08.2018 19:00:00 - 20.08.2018 19:00:00 (CEST)
Date & Time tt [°C] td [°C] ff [km/h] ff [knt] fx [km/h] fx [knt] dd rr [mm]
20.08.2018 19:00:00 - - - - - - - -
20.08.2018 18:00:00 26,7 21,9 22 12 33 18 SE 0,0
20.08.2018 17:00:00 27,0 21,3 26 14 33 18 SE 0,0
20.08.2018 16:00:00 27,3 21,3 22 12 27 15 SE 0,0
20.08.2018 15:00:00 26,5 20,6 14 7 20 11 SSW 0,0
20.08.2018 14:00:00 27,1 20,7 11 6 18 10 S -
20.08.2018 13:00:00 27,0 21,1 10 6 18 10 SSW 0,0
20.08.2018 12:00:00 26,6 22,4 10 6 16 9 SW 0,0
20.08.2018 11:00:00 26,7 22,1 8 4 14 7 SSW 0,0
20.08.2018 10:00:00 29,3 22,0 2 1 6 4 SSE 0,0
20.08.2018 09:00:00 26,3 22,2 2 1 4 2 SE 0,0
20.08.2018 08:00:00 23,3 21,4 2 1 5 3 N -
20.08.2018 07:00:00 23,3 21,6 2 1 4 2 NNE 0,0
20.08.2018 06:00:00 23,7 22,0 1 1 6 3 NE 0,0
20.08.2018 05:00:00 24,4 22,3 4 2 6 3 WNW 0,0
20.08.2018 04:00:00 25,0 22,5 1 1 6 3 W 0,0
20.08.2018 03:00:00 25,4 22,7 0 0 7 4 NW 0,0
20.08.2018 02:00:00 25,7 22,8 4 2 8 4 S -
20.08.2018 01:00:00 25,7 22,4 3 2 11 6 SW 0,0
20.08.2018 00:00:00 25,7 22,6 7 4 13 7 SW 0,0
19.08.2018 23:00:00 25,7 22,2 6 3 16 8 SW 0,0
19.08.2018 22:00:00 25,8 22,7 10 6 18 10 SW 0,0
19.08.2018 21:00:00 26,3 21,7 12 7 20 11 SE 0,0
19.08.2018 20:00:00 26,5 21,7 9 5 18 10 SW -
19.08.2018 19:00:00 26,8 22,0 10 5 20 11 SW 0,0
19.08.2018 18:00:00 27,6 21,9 11 6 22 12 S 0,0
19.08.2018 17:00:00 27,2 21,7 13 7 31 17 S 0,0
19.08.2018 16:00:00 27,9 22,6 16 9 29 16 S 0,0
19.08.2018 15:00:00 28,4 21,7 20 11 30 16 SE 0,0
19.08.2018 14:00:00 28,1 20,9 11 6 21 11 SW -
19.08.2018 13:00:00 28,2 20,5 9 5 17 9 SW 0,0
19.08.2018 12:00:00 26,9 22,1 8 5 14 7 SW 0,0
19.08.2018 11:00:00 27,4 20,5 7 4 12 6 SSW 0,0
19.08.2018 10:00:00 29,3 21,0 3 2 6 3 S 0,0
19.08.2018 09:00:00 26,3 21,5 2 1 7 4 NE 0,0
19.08.2018 08:00:00 22,5 20,6 1 1 4 2 N -
19.08.2018 07:00:00 22,8 20,9 1 1 4 2 N 0,0
19.08.2018 06:00:00 22,8 20,9 4 2 5 3 N 0,0
19.08.2018 05:00:00 23,4 21,7 0 0 9 5 N 0,0
19.08.2018 04:00:00 23,6 21,7 0 0 5 3 E 0,0
19.08.2018 03:00:00 24,0 21,7 4 2 6 3 N 0,0
19.08.2018 02:00:00 24,2 21,7 1 1 6 3 NNE -
19.08.2018 01:00:00 25,7 22,6 5 3 13 7 W 0,0
19.08.2018 00:00:00 25,8 21,7 5 3 14 7 SW 0,0
18.08.2018 23:00:00 26,1 21,1 4 2 14 8 WNW 0,0
18.08.2018 22:00:00 27,0 20,6 10 6 31 17 E 0,0
18.08.2018 21:00:00 27,3 20,4 18 10 27 14 E 0,0
18.08.2018 20:00:00 28,3 20,6 16 9 32 18 E -
18.08.2018 19:00:00 28,6 20,9 16 9 36 20 ESE 0,0
18.08.2018 18:00:00 29,0 19,9 23 12 35 19 ESE 0,0
18.08.2018 17:00:00 29,4 19,4 21 11 36 19 E 0,0
18.08.2018 16:00:00 26,7 21,9 24 13 34 19 SE 0,0
18.08.2018 15:00:00 27,3 21,6 27 14 37 20 SE 0,0
18.08.2018 14:00:00 27,1 21,8 27 15 35 19 SE -
18.08.2018 13:00:00 26,8 22,2 22 12 31 17 SE 0,0
18.08.2018 12:00:00 26,8 21,5 23 13 32 17 SE 0,0
18.08.2018 11:00:00 27,9 21,0 15 8 24 13 ESE 0,0
18.08.2018 10:00:00 29,4 20,5 4 2 10 5 SSE 0,0
18.08.2018 09:00:00 27,3 18,9 2 1 8 4 SSE 0,0
18.08.2018 08:00:00 23,8 18,7 1 1 10 5 NW -
18.08.2018 07:00:00 23,5 17,9 5 3 9 5 NE 0,0
18.08.2018 06:00:00 23,9 18,1 3 2 10 5 NNW 0,0
18.08.2018 05:00:00 23,3 17,1 5 3 8 4 NNW 0,0
18.08.2018 04:00:00 24,2 17,4 2 1 8 5 N 0,0
18.08.2018 03:00:00 24,8 19,0 1 1 12 6 E 0,0
18.08.2018 02:00:00 23,5 18,4 2 1 7 4 E -
18.08.2018 01:00:00 24,1 18,1 2 1 6 3 ESE 0,0
18.08.2018 00:00:00 25,1 19,9 3 2 5 3 WSW 0,0
17.08.2018 23:00:00 25,4 19,8 1 1 8 5 ENE 0,0
17.08.2018 22:00:00 25,5 19,4 1 1 6 4 NNW 0,0
17.08.2018 21:00:00 25,9 20,2 3 1 9 5 S 0,0
17.08.2018 20:00:00 25,9 20,2 5 3 10 6 SW -
17.08.2018 19:00:00 26,7 20,8 5 3 14 8 SSW 0,0
17.08.2018 18:00:00 27,0 21,7 9 5 15 8 SW 0,0
17.08.2018 17:00:00 26,8 22,0 8 4 14 8 S 0,0
17.08.2018 16:00:00 26,2 22,1 8 4 17 9 SSW 0,0
17.08.2018 15:00:00 26,2 21,8 11 6 18 10 SSW 0,0
17.08.2018 14:00:00 25,8 21,7 11 6 16 9 SSW -
17.08.2018 13:00:00 25,9 21,8 9 5 15 8 SSW 0,0
17.08.2018 12:00:00 25,8 22,9 9 5 15 8 SSW 0,0
17.08.2018 11:00:00 25,7 23,0 8 4 11 6 S 0,0
17.08.2018 10:00:00 26,4 22,2 6 4 9 5 S 0,0
17.08.2018 09:00:00 25,7 22,4 4 2 13 7 W 0,0
17.08.2018 08:00:00 24,2 18,4 10 5 16 9 W -
17.08.2018 07:00:00 23,3 19,9 4 2 9 5 S 0,0
17.08.2018 06:00:00 23,7 20,6 3 2 8 4 SW 0,0
17.08.2018 05:00:00 23,0 21,1 1 1 6 3 S 0,0
17.08.2018 04:00:00 23,0 21,1 3 2 5 3 NW 0,0
17.08.2018 03:00:00 23,4 20,9 0 0 7 4 E 0,0
17.08.2018 02:00:00 24,0 21,1 3 1 8 4 NW -
17.08.2018 01:00:00 24,2 21,5 3 1 8 4 NW 0,0
17.08.2018 00:00:00 24,2 21,5 3 2 8 4 NNW 0,0
16.08.2018 23:00:00 25,3 21,6 0 0 10 5 W 0,0
16.08.2018 22:00:00 25,5 21,4 5 3 11 6 W 0,0
16.08.2018 21:00:00 26,3 21,3 1 1 11 6 WNW 0,0
16.08.2018 20:00:00 - - - - - - - -
16.08.2018 19:00:00 26,6 20,9 8 4 19 11 W 0,0
16.08.2018 18:00:00 27,6 21,9 10 6 21 11 SW 0,0
16.08.2018 17:00:00 26,4 21,4 14 8 24 13 WSW 0,0
16.08.2018 16:00:00 27,2 22,2 11 6 25 13 WSW 0,0
16.08.2018 15:00:00 27,2 21,9 12 7 23 13 WSW 0,0
16.08.2018 14:00:00 26,3 22,2 14 8 22 12 WSW -
16.08.2018 13:00:00 26,1 22,6 11 6 22 12 SW 0,0
16.08.2018 12:00:00 26,2 23,1 11 6 21 11 WSW 0,0
16.08.2018 11:00:00 25,8 23,5 10 5 23 13 WSW 0,0
16.08.2018 10:00:00 25,9 24,1 13 7 21 11 SW 0,0
16.08.2018 09:00:00 28,1 23,0 2 1 5 3 ESE 0,0
16.08.2018 08:00:00 24,7 23,1 3 2 8 5 NW -
16.08.2018 07:00:00 25,4 23,5 5 3 9 5 W 0,0
16.08.2018 06:00:00 25,5 23,7 1 1 7 4 E 0,0
16.08.2018 05:00:00 25,9 24,1 1 1 10 5 SW 0,0
16.08.2018 04:00:00 25,6 24,0 1 1 7 4 N 0,0
16.08.2018 03:00:00 25,6 24,0 3 2 6 3 NW 0,0
16.08.2018 02:00:00 25,6 24,0 3 2 10 5 WNW -
16.08.2018 01:00:00 25,7 24,1 8 5 15 8 SSE 0,0
16.08.2018 00:00:00 25,7 23,7 13 7 23 12 ESE 0,0
15.08.2018 23:00:00 25,7 22,8 12 7 21 12 ESE 0,0
15.08.2018 22:00:00 25,9 23,6 6 3 13 7 SSW 0,0
15.08.2018 21:00:00 26,1 23,4 6 4 10 5 SW 0,0
15.08.2018 20:00:00 27,5 23,3 4 2 19 10 SSW -
15.08.2018 19:00:00 27,6 24,0 9 5 16 9 SW 0,0
15.08.2018 18:00:00 27,2 23,0 11 6 16 9 S 0,0
15.08.2018 17:00:00 28,0 23,6 7 4 14 8 S 0,0
15.08.2018 16:00:00 27,8 23,6 9 5 19 11 SSW 0,0
15.08.2018 15:00:00 26,6 23,7 15 8 20 11 S 0,0
15.08.2018 14:00:00 28,5 23,8 9 5 20 11 SSE -
15.08.2018 13:00:00 27,9 23,7 13 7 18 10 SSE 0,0
15.08.2018 12:00:00 27,2 23,0 9 5 15 8 S 0,0
15.08.2018 11:00:00 27,0 22,2 7 4 14 8 SW 0,0
15.08.2018 10:00:00 27,2 21,5 5 3 8 4 SSW 0,0
15.08.2018 09:00:00 25,9 21,8 2 1 6 3 ENE 0,0
15.08.2018 08:00:00 22,6 21,4 1 1 5 3 ENE -
15.08.2018 07:00:00 22,8 21,8 0 0 3 2 N 0,0
15.08.2018 06:00:00 23,0 22,0 0 0 5 3 N 0,0
15.08.2018 05:00:00 23,0 22,0 1 1 5 3 N 0,0
15.08.2018 04:00:00 24,0 23,0 2 1 10 5 NNW 0,0
15.08.2018 03:00:00 23,9 22,7 3 2 11 6 NW 0,0
15.08.2018 02:00:00 24,1 22,9 2 1 16 9 W -
15.08.2018 01:00:00 25,4 23,6 8 4 12 7 SSE 0,0
15.08.2018 00:00:00 25,6 22,7 1 0 9 5 ESE 0,0
14.08.2018 23:00:00 25,8 21,7 3 1 5 3 E 0,0
14.08.2018 22:00:00 25,9 22,6 2 1 6 3 N 0,0
14.08.2018 21:00:00 26,8 21,8 3 2 7 4 S 0,0
14.08.2018 20:00:00 27,8 21,3 3 2 9 5 S -
14.08.2018 19:00:00 26,7 23,8 5 3 16 9 SW 0,0

tt = Température de l'air
td = dewpoint
ff = Vitesse du vent
fx = gusts
dd = Direction du vent
rr = Quantités de précipitations

stations d'obs. à proximité